Time;durP1;ratioP1;P1;durP2;ratioP2;P2;SDS_P1;SDS_P2;PMS_P1;PMS_P2;Temp;Humidity;BMP_temperature;BMP_pressure;BME280_temperature;BME280_humidity;BME280_pressure;Samples;Min_cycle;Max_cycle;Signal;HPM_P1;HPM_P2
2021/07/02 00:01:52;;;;;;;3.60;3.30;;;16.20;21.80;;;;;;5042338;28;20231;-57
2021/07/02 00:04:17;;;;;;;3.07;2.80;;;16.20;22.30;;;;;;5034848;28;20188;-55
2021/07/02 00:06:43;;;;;;;3.30;3.00;;;16.30;17.80;;;;;;5040388;28;20591;-57
2021/07/02 00:09:08;;;;;;;4.20;3.50;;;16.30;18.70;;;;;;5034604;28;20332;-58
2021/07/02 00:11:34;;;;;;;3.30;3.00;;;16.30;20.80;;;;;;5045362;28;20212;-55
2021/07/02 00:13:59;;;;;;;3.60;3.20;;;16.40;13.20;;;;;;5042473;28;20219;-57
2021/07/02 00:16:25;;;;;;;4.00;3.63;;;16.40;15.90;;;;;;5034892;28;20183;-57
2021/07/02 00:18:50;;;;;;;3.60;3.30;;;16.40;16.10;;;;;;5042927;28;20202;-58
2021/07/02 00:21:16;;;;;;;3.77;2.93;;;16.40;15.90;;;;;;5040917;28;20236;-54
2021/07/02 00:23:42;;;;;;;3.47;3.17;;;16.40;15.70;;;;;;5043358;28;20188;-58
2021/07/02 00:26:07;;;;;;;4.20;3.80;;;16.40;14.20;;;;;;5050578;28;20189;-58
2021/07/02 00:28:33;;;;;;;3.93;3.63;;;16.30;21.40;;;;;;5040848;28;20196;-56
2021/07/02 00:30:58;;;;;;;3.93;3.53;;;16.30;21.70;;;;;;5041320;28;20219;-57
2021/07/02 00:33:24;;;;;;;3.93;3.60;;;16.40;18.10;;;;;;5034215;28;20184;-59
2021/07/02 00:35:49;;;;;;;3.70;3.27;;;16.30;20.20;;;;;;5045821;28;20191;-56
2021/07/02 00:38:15;;;;;;;3.90;3.60;;;16.40;19.90;;;;;;5045042;28;20187;-58
2021/07/02 00:40:41;;;;;;;3.70;3.40;;;16.40;18.50;;;;;;5041179;28;20720;-56
2021/07/02 00:43:07;;;;;;;3.77;3.47;;;16.20;22.80;;;;;;5045413;28;20197;-58
2021/07/02 00:45:33;;;;;;;4.00;3.60;;;16.40;20.10;;;;;;5036242;28;20266;-60
2021/07/02 00:48:02;;;;;;;3.73;3.43;;;16.30;20.60;;;;;;5038610;28;21017;-57
2021/07/02 00:50:28;;;;;;;4.10;3.70;;;16.30;20.80;;;;;;5049206;28;20983;-56
2021/07/02 00:52:53;;;;;;;4.50;4.10;;;16.30;25.30;;;;;;5037343;28;20466;-57
2021/07/02 00:55:19;;;;;;;4.03;3.63;;;16.30;22.40;;;;;;5047102;28;20704;-54
2021/07/02 00:57:45;;;;;;;4.00;3.70;;;16.30;23.60;;;;;;5049311;28;20758;-57
2021/07/02 01:00:11;;;;;;;4.53;3.60;;;16.40;20.00;;;;;;5042370;28;20242;-57
2021/07/02 01:02:38;;;;;;;4.30;3.67;;;16.50;16.40;;;;;;5040723;28;20429;-55
2021/07/02 01:05:05;;;;;;;5.43;4.13;;;16.30;23.70;;;;;;5046990;28;20895;-58
2021/07/02 01:07:31;;;;;;;4.43;4.03;;;16.30;27.10;;;;;;5045234;28;20529;-58
2021/07/02 01:09:57;;;;;;;4.87;4.40;;;16.30;28.50;;;;;;5042471;28;20442;-57
2021/07/02 01:12:23;;;;;;;5.70;4.40;;;16.30;26.80;;;;;;5033639;28;20795;-57
2021/07/02 01:14:49;;;;;;;5.07;3.43;;;16.40;23.30;;;;;;5038617;28;20600;-57
2021/07/02 01:17:14;;;;;;;3.83;3.53;;;16.40;21.20;;;;;;5043158;28;20459;-58
2021/07/02 01:19:49;;;;;;;5.13;4.20;;;16.30;26.30;;;;;;5043812;28;20549;-57
2021/07/02 01:22:26;;;;;;;4.85;3.78;;;16.40;20.90;;;;;;5045878;28;20181;-57
2021/07/02 01:24:53;;;;;;;4.40;3.93;;;16.40;21.90;;;;;;5043493;28;20183;-63
2021/07/02 01:27:20;;;;;;;4.03;3.70;;;16.40;21.40;;;;;;5047023;28;20430;-57
2021/07/02 01:29:47;;;;;;;4.40;3.50;;;16.40;21.80;;;;;;5034487;28;20530;-56
2021/07/02 01:32:13;;;;;;;4.73;3.53;;;16.50;21.50;;;;;;5034777;28;20466;-57
2021/07/02 01:34:40;;;;;;;4.00;3.70;;;16.40;28.80;;;;;;5044963;28;20791;-57
2021/07/02 01:37:07;;;;;;;3.90;3.50;;;16.30;28.10;;;;;;5049687;28;20439;-56
2021/07/02 01:39:32;;;;;;;4.70;3.93;;;16.40;27.40;;;;;;5035605;28;20568;-54
2021/07/02 01:41:58;;;;;;;4.33;3.60;;;16.30;30.70;;;;;;5033991;28;20524;-57
2021/07/02 01:44:23;;;;;;;4.30;3.90;;;16.30;33.90;;;;;;5046625;28;20455;-58
2021/07/02 01:46:49;;;;;;;3.90;3.50;;;16.20;36.20;;;;;;5034547;28;20205;-58
2021/07/02 01:49:15;;;;;;;4.00;3.60;;;16.20;41.10;;;;;;5039691;28;20174;-58
2021/07/02 01:51:41;;;;;;;4.20;3.57;;;16.10;46.40;;;;;;5044868;28;20220;-58
2021/07/02 01:54:06;;;;;;;4.30;3.90;;;16.10;51.80;;;;;;5047667;28;20418;-58
2021/07/02 01:56:32;;;;;;;4.50;4.03;;;16.10;57.20;;;;;;5044497;28;20572;-57
2021/07/02 01:58:57;;;;;;;5.43;4.70;;;16.10;58.00;;;;;;5039234;28;20184;-57
2021/07/02 02:01:23;;;;;;;5.07;4.47;;;16.00;65.00;;;;;;5044888;28;20228;-57
2021/07/02 02:03:52;;;;;;;6.77;5.13;;;15.90;81.30;;;;;;5032027;28;20203;-57
2021/07/02 02:06:18;;;;;;;5.30;4.22;;;15.90;84.70;;;;;;5033880;28;20175;-58
2021/07/02 02:08:44;;;;;;;6.07;4.80;;;15.90;83.50;;;;;;5043579;28;20274;-64
2021/07/02 02:11:09;;;;;;;5.33;4.80;;;15.90;90.00;;;;;;5049555;28;20627;-57
2021/07/02 02:13:35;;;;;;;5.40;4.77;;;15.90;91.80;;;;;;5041026;28;20278;-58
2021/07/02 02:16:00;;;;;;;6.17;4.70;;;15.90;93.60;;;;;;5034980;28;20209;-57
2021/07/02 02:18:26;;;;;;;5.50;5.00;;;15.80;98.20;;;;;;5039944;28;20214;-57
2021/07/02 02:20:52;;;;;;;6.10;5.10;;;15.80;99.90;;;;;;5043156;28;20204;-56
2021/07/02 02:23:17;;;;;;;5.63;5.13;;;15.80;99.90;;;;;;5049624;28;20208;-57
2021/07/02 02:25:42;;;;;;;6.00;5.40;;;15.80;99.90;;;;;;5035032;28;20264;-57
2021/07/02 02:28:08;;;;;;;6.30;5.30;;;15.90;99.90;;;;;;5048161;28;20248;-57
2021/07/02 02:30:36;;;;;;;6.43;5.40;;;15.80;99.90;;;;;;5048156;28;20199;-57
2021/07/02 02:33:04;;;;;;;6.53;5.23;;;15.90;99.90;;;;;;5039173;28;20184;-58
2021/07/02 02:35:30;;;;;;;6.45;5.22;;;15.90;99.90;;;;;;5047341;28;20436;-57
2021/07/02 02:37:55;;;;;;;6.27;5.10;;;15.90;99.90;;;;;;5048869;28;20213;-58
2021/07/02 02:40:21;;;;;;;6.10;5.60;;;15.90;99.90;;;;;;5044961;28;20759;-59
2021/07/02 02:42:46;;;;;;;5.40;4.90;;;15.90;99.90;;;;;;5044898;28;20198;-58
2021/07/02 02:45:12;;;;;;;6.30;5.13;;;15.90;99.90;;;;;;5043867;28;20178;-59
2021/07/02 02:47:38;;;;;;;5.37;4.87;;;15.80;99.90;;;;;;5037442;28;20985;-59
2021/07/02 02:50:05;;;;;;;6.07;4.97;;;15.70;99.90;;;;;;5047415;28;20685;-64
2021/07/02 02:52:30;;;;;;;5.70;5.10;;;15.60;99.90;;;;;;5048611;28;20219;-59
2021/07/02 02:54:56;;;;;;;6.53;5.57;;;15.50;99.90;;;;;;5041033;28;20203;-58
2021/07/02 02:57:21;;;;;;;6.47;5.30;;;15.50;99.90;;;;;;5040718;28;20235;-57
2021/07/02 02:59:47;;;;;;;7.10;6.00;;;15.50;99.90;;;;;;5044415;28;20190;-60
2021/07/02 03:02:12;;;;;;;6.63;5.40;;;15.50;99.90;;;;;;5045100;28;20195;-59
2021/07/02 03:04:38;;;;;;;9.43;5.70;;;15.40;99.90;;;;;;5048431;28;20224;-58
2021/07/02 03:07:05;;;;;;;5.60;5.07;;;15.40;99.90;;;;;;5044006;28;20231;-62
2021/07/02 03:09:30;;;;;;;6.90;5.43;;;15.30;99.90;;;;;;5048011;28;20196;-58
2021/07/02 03:11:56;;;;;;;7.57;5.27;;;15.20;99.90;;;;;;5040721;28;20472;-59
2021/07/02 03:14:22;;;;;;;8.40;5.60;;;15.30;99.90;;;;;;5046434;28;20179;-61
2021/07/02 03:16:48;;;;;;;6.40;5.53;;;15.20;99.90;;;;;;5037712;28;20668;-58
2021/07/02 03:19:14;;;;;;;5.80;5.03;;;15.20;99.90;;;;;;5038442;28;20437;-59
2021/07/02 03:21:40;;;;;;;5.83;5.10;;;15.20;99.90;;;;;;5045383;28;20443;-59
2021/07/02 03:24:06;;;;;;;4.80;4.40;;;15.20;99.90;;;;;;5054424;28;20448;-58
2021/07/02 03:26:32;;;;;;;5.60;4.67;;;15.20;99.90;;;;;;5038088;28;20193;-59
2021/07/02 03:28:58;;;;;;;4.80;4.07;;;15.20;99.90;;;;;;5048165;28;20440;-58
2021/07/02 03:31:23;;;;;;;4.37;3.97;;;15.20;99.90;;;;;;5044648;28;20455;-57
2021/07/02 03:33:49;;;;;;;5.80;4.17;;;15.20;99.90;;;;;;5044257;28;20688;-60
2021/07/02 03:36:15;;;;;;;4.87;4.37;;;15.20;99.90;;;;;;5032515;28;20737;-59
2021/07/02 03:38:40;;;;;;;4.57;4.13;;;15.20;99.90;;;;;;5044546;28;20469;-57
2021/07/02 03:41:06;;;;;;;6.20;4.73;;;15.20;99.90;;;;;;5043445;28;20197;-58
2021/07/02 03:43:32;;;;;;;4.23;3.83;;;15.20;99.90;;;;;;5035589;28;20270;-58
2021/07/02 03:45:57;;;;;;;4.60;4.10;;;15.30;99.90;;;;;;5037754;28;20449;-58
2021/07/02 03:48:23;;;;;;;4.70;4.23;;;15.30;99.90;;;;;;5029809;28;20198;-59
2021/07/02 03:50:48;;;;;;;4.90;4.10;;;15.30;99.90;;;;;;5036690;28;20217;-64
2021/07/02 03:53:14;;;;;;;4.83;4.40;;;15.30;99.90;;;;;;5034238;28;20195;-59
2021/07/02 03:55:39;;;;;;;5.43;4.00;;;15.30;99.90;;;;;;5036113;28;20509;-59
2021/07/02 03:58:05;;;;;;;5.83;3.70;;;15.30;99.90;;;;;;5046659;28;20197;-58
2021/07/02 04:00:30;;;;;;;5.47;4.40;;;15.30;99.90;;;;;;5045845;28;20230;-57
2021/07/02 04:02:57;;;;;;;4.40;4.00;;;15.40;99.90;;;;;;5048456;28;20301;-58
2021/07/02 04:05:23;;;;;;;5.80;4.50;;;15.40;99.90;;;;;;5031567;28;20535;-58
2021/07/02 04:07:48;;;;;;;5.50;4.50;;;15.30;99.90;;;;;;5032930;28;20190;-58
2021/07/02 04:10:14;;;;;;;4.00;3.60;;;15.40;99.90;;;;;;5035356;28;20984;-58
2021/07/02 04:12:40;;;;;;;3.60;3.30;;;15.30;99.90;;;;;;5029153;28;20585;-59
2021/07/02 04:15:09;;;;;;;4.90;4.40;;;15.30;99.90;;;;;;5046274;28;20196;-58
2021/07/02 04:17:37;;;;;;;5.07;3.97;;;15.40;99.90;;;;;;5037334;28;20487;-58
2021/07/02 04:20:05;;;;;;;4.63;4.07;;;15.40;99.90;;;;;;5042916;28;20195;-63
2021/07/02 04:22:30;;;;;;;4.72;4.22;;;15.40;99.90;;;;;;5042386;28;20450;-60
2021/07/02 04:24:56;;;;;;;6.90;4.80;;;15.40;99.90;;;;;;5046830;28;20196;-59
2021/07/02 04:27:21;;;;;;;5.17;4.57;;;15.40;99.90;;;;;;5043632;28;20231;-58
2021/07/02 04:29:47;;;;;;;4.40;4.00;;;15.40;99.90;;;;;;5042098;28;20636;-58
2021/07/02 04:32:13;;;;;;;3.50;2.90;;;15.40;99.90;;;;;;5039097;28;20206;-58
2021/07/02 04:34:39;;;;;;;3.87;3.20;;;15.40;99.90;;;;;;5034781;28;20665;-59
2021/07/02 04:37:04;;;;;;;4.00;3.60;;;15.40;99.90;;;;;;5041417;28;20187;-60
2021/07/02 04:39:30;;;;;;;4.03;3.63;;;15.40;99.90;;;;;;5038187;28;20182;-59
2021/07/02 04:41:55;;;;;;;3.30;3.00;;;15.40;99.90;;;;;;5035916;28;20656;-59
2021/07/02 04:44:21;;;;;;;4.07;3.67;;;15.50;99.90;;;;;;5043709;28;20205;-60
2021/07/02 04:46:46;;;;;;;5.00;4.50;;;15.40;99.90;;;;;;5028694;28;20190;-60
2021/07/02 04:49:12;;;;;;;3.57;3.27;;;15.40;99.90;;;;;;5036507;28;20230;-59
2021/07/02 04:51:38;;;;;;;2.63;2.43;;;15.40;99.90;;;;;;5047335;28;20574;-59
2021/07/02 04:54:03;;;;;;;4.77;3.40;;;15.50;99.90;;;;;;5042657;28;20221;-59
2021/07/02 04:56:29;;;;;;;2.47;2.27;;;15.50;99.90;;;;;;5043168;28;20280;-60
2021/07/02 04:58:55;;;;;;;4.03;2.50;;;15.50;99.90;;;;;;5045483;28;20191;-61
2021/07/02 05:01:22;;;;;;;3.17;2.47;;;15.40;99.90;;;;;;5041955;28;20276;-60
2021/07/02 05:03:47;;;;;;;2.87;2.67;;;15.40;99.90;;;;;;5048069;28;20205;-61
2021/07/02 05:06:13;;;;;;;2.37;2.17;;;15.40;99.90;;;;;;5047579;28;20911;-60
2021/07/02 05:08:39;;;;;;;1.90;1.67;;;15.40;99.90;;;;;;5050730;28;20193;-60
2021/07/02 05:11:05;;;;;;;1.85;1.75;;;15.40;99.90;;;;;;5050396;28;20289;-66
2021/07/02 05:13:33;;;;;;;2.13;1.70;;;15.30;99.90;;;;;;5039928;28;20325;-61
2021/07/02 05:15:59;;;;;;;1.53;1.43;;;15.30;99.90;;;;;;5048883;28;20688;-61
2021/07/02 05:18:24;;;;;;;2.20;1.67;;;15.30;99.90;;;;;;5049829;28;20436;-61
2021/07/02 05:20:50;;;;;;;2.73;1.90;;;15.20;99.90;;;;;;5043247;28;20890;-61
2021/07/02 05:23:15;;;;;;;3.97;1.60;;;15.20;99.90;;;;;;5042450;28;20583;-60
2021/07/02 05:25:41;;;;;;;2.67;2.20;;;15.20;99.90;;;;;;5039225;28;20186;-61
2021/07/02 05:28:07;;;;;;;2.20;1.80;;;15.20;99.90;;;;;;5044007;28;20897;-60
2021/07/02 05:30:33;;;;;;;1.97;1.77;;;15.20;99.90;;;;;;5049341;28;20637;-61
2021/07/02 05:32:58;;;;;;;1.87;1.63;;;15.20;99.90;;;;;;5049690;28;20223;-61
2021/07/02 05:35:24;;;;;;;2.00;1.70;;;15.20;99.90;;;;;;5043445;28;20448;-60
2021/07/02 05:37:50;;;;;;;1.50;1.40;;;15.30;99.90;;;;;;5045389;28;20636;-60
2021/07/02 05:40:16;;;;;;;1.20;1.10;;;15.30;99.90;;;;;;5036533;28;20447;-61
2021/07/02 05:42:43;;;;;;;1.90;1.60;;;15.20;99.90;;;;;;5041581;28;20193;-60
2021/07/02 05:45:09;;;;;;;1.77;1.53;;;15.20;99.90;;;;;;5030059;28;20429;-64
2021/07/02 05:47:45;;;;;;;1.60;1.50;;;15.20;99.90;;;;;;5024338;28;20449;-60
2021/07/02 05:50:11;;;;;;;1.60;1.50;;;15.30;99.90;;;;;;5032159;28;20429;-60
2021/07/02 05:52:37;;;;;;;1.40;1.30;;;15.30;99.90;;;;;;5026890;28;20461;-61
2021/07/02 05:55:03;;;;;;;1.43;1.30;;;15.30;99.90;;;;;;5025113;28;20589;-63
2021/07/02 05:57:29;;;;;;;1.47;1.37;;;15.40;99.90;;;;;;5027822;28;20187;-60
2021/07/02 05:59:55;;;;;;;1.30;1.20;;;15.40;99.90;;;;;;5035075;28;20552;-61
2021/07/02 06:02:20;;;;;;;1.70;1.20;;;15.40;99.90;;;;;;5028514;28;20880;-61
2021/07/02 06:04:46;;;;;;;1.30;1.20;;;15.40;99.90;;;;;;5028863;28;20200;-61
2021/07/02 06:07:11;;;;;;;1.07;0.93;;;15.40;99.90;;;;;;5032243;28;20608;-60
2021/07/02 06:09:37;;;;;;;1.57;1.17;;;15.40;99.90;;;;;;5030999;28;20193;-61
2021/07/02 06:12:03;;;;;;;1.00;1.00;;;15.40;99.90;;;;;;5030970;28;20222;-61
2021/07/02 06:14:30;;;;;;;1.63;1.20;;;15.40;99.90;;;;;;5030840;28;20237;-61
2021/07/02 06:16:56;;;;;;;1.80;1.20;;;15.40;99.90;;;;;;5027617;28;20440;-61
2021/07/02 06:19:21;;;;;;;3.85;1.38;;;15.40;99.90;;;;;;5022933;28;20441;-61
2021/07/02 06:21:47;;;;;;;1.30;1.20;;;15.50;99.90;;;;;;5023107;28;20201;-61
2021/07/02 06:24:13;;;;;;;1.10;1.07;;;15.50;99.90;;;;;;5023332;28;20263;-67
2021/07/02 06:26:38;;;;;;;1.30;1.20;;;15.50;99.90;;;;;;5026838;28;20259;-60
2021/07/02 06:29:04;;;;;;;1.77;1.37;;;15.50;99.90;;;;;;5022971;28;20192;-59
2021/07/02 06:31:29;;;;;;;1.20;1.10;;;15.50;99.90;;;;;;5030063;28;20213;-60
2021/07/02 06:33:55;;;;;;;1.00;0.90;;;15.50;99.90;;;;;;5022069;28;20179;-60
2021/07/02 06:36:20;;;;;;;1.30;1.20;;;15.60;99.90;;;;;;5025693;28;20184;-60
2021/07/02 06:38:46;;;;;;;1.50;1.10;;;15.60;99.90;;;;;;5026282;28;20190;-63
2021/07/02 06:41:11;;;;;;;1.20;1.10;;;15.70;99.90;;;;;;5049292;28;20293;-61
2021/07/02 06:43:37;;;;;;;1.10;1.00;;;15.70;99.90;;;;;;5049823;28;20160;-66
2021/07/02 06:46:02;;;;;;;1.40;1.30;;;15.70;99.90;;;;;;5049696;28;20687;-59
2021/07/02 06:48:28;;;;;;;1.50;1.40;;;15.80;99.90;;;;;;5047467;28;20191;-61
2021/07/02 06:50:56;;;;;;;1.30;1.20;;;15.80;99.90;;;;;;5046598;28;20241;-60
2021/07/02 06:53:21;;;;;;;1.40;1.30;;;15.80;99.90;;;;;;5050091;28;20194;-60
2021/07/02 06:55:47;;;;;;;3.20;1.50;;;15.90;99.90;;;;;;5049083;28;20492;-65
2021/07/02 06:58:13;;;;;;;1.57;1.47;;;15.90;99.90;;;;;;5048040;28;20188;-60
2021/07/02 07:00:39;;;;;;;1.50;1.40;;;15.90;99.90;;;;;;5049530;28;20230;-61
2021/07/02 07:03:08;;;;;;;1.77;1.63;;;15.90;99.90;;;;;;5035717;28;20196;-60
2021/07/02 07:05:35;;;;;;;2.13;1.90;;;15.90;99.90;;;;;;5049953;28;20196;-60
2021/07/02 07:08:02;;;;;;;1.90;1.80;;;16.00;99.90;;;;;;5048485;28;20452;-60
2021/07/02 07:10:30;;;;;;;2.40;1.58;;;16.10;99.90;;;;;;5030462;28;20421;-60
2021/07/02 07:12:59;;;;;;;2.20;1.80;;;16.10;99.90;;;;;;5030283;28;20822;-61
2021/07/02 07:15:25;;;;;;;1.90;1.70;;;16.10;99.90;;;;;;5048072;28;20904;-60
2021/07/02 07:17:51;;;;;;;2.73;1.97;;;16.10;99.90;;;;;;5048176;28;20417;-61
2021/07/02 07:20:16;;;;;;;1.77;1.67;;;16.10;99.90;;;;;;5032787;28;20444;-65
2021/07/02 07:22:42;;;;;;;2.20;2.00;;;16.10;99.90;;;;;;5028641;28;20457;-60
2021/07/02 07:25:08;;;;;;;2.70;2.10;;;16.10;99.90;;;;;;5028945;28;20184;-62
2021/07/02 07:27:34;;;;;;;4.13;2.23;;;16.10;99.90;;;;;;5042569;28;20232;-62
2021/07/02 07:29:59;;;;;;;2.67;2.47;;;16.10;99.90;;;;;;5048710;28;20414;-60
2021/07/02 07:32:26;;;;;;;2.50;2.27;;;16.00;99.90;;;;;;5046209;28;20296;-60
2021/07/02 07:34:57;;;;;;;3.33;2.47;;;16.10;99.90;;;;;;5048455;28;20177;-60
2021/07/02 07:37:24;;;;;;;3.10;2.57;;;16.10;99.90;;;;;;5048065;28;20517;-61
2021/07/02 07:39:50;;;;;;;2.73;2.30;;;16.10;99.90;;;;;;5035174;28;20496;-61
2021/07/02 07:42:17;;;;;;;3.63;3.33;;;16.10;99.90;;;;;;5043295;28;20834;-61
2021/07/02 07:44:42;;;;;;;4.00;3.60;;;16.10;99.90;;;;;;5035441;28;20437;-64
2021/07/02 07:47:09;;;;;;;4.63;4.03;;;16.20;99.90;;;;;;5031336;28;20441;-66
2021/07/02 07:49:34;;;;;;;4.30;3.90;;;16.20;99.90;;;;;;5037890;28;20532;-65
2021/07/02 07:52:11;;;;;;;6.20;4.67;;;16.10;99.90;;;;;;5043816;28;20461;-66
2021/07/02 07:54:38;;;;;;;5.60;4.90;;;16.10;99.90;;;;;;5046584;28;20503;-65
2021/07/02 07:57:04;;;;;;;5.67;5.10;;;16.10;99.90;;;;;;5048729;28;20410;-66
2021/07/02 07:59:30;;;;;;;6.70;5.97;;;16.20;99.90;;;;;;5047624;28;20439;-64
2021/07/02 08:01:56;;;;;;;10.70;7.50;;;16.20;99.90;;;;;;5046257;28;20469;-65
2021/07/02 08:04:21;;;;;;;12.47;9.20;;;16.20;99.90;;;;;;5048599;28;20441;-66
2021/07/02 08:06:49;;;;;;;13.83;10.93;;;16.20;99.90;;;;;;5048606;28;20190;-66
2021/07/02 08:09:15;;;;;;;19.40;12.93;;;16.20;99.90;;;;;;5047725;28;20211;-66
2021/07/02 08:11:41;;;;;;;17.10;12.10;;;16.20;99.90;;;;;;5048617;28;20462;-67
2021/07/02 08:14:07;;;;;;;15.97;12.57;;;16.20;99.90;;;;;;5044991;28;20696;-65
2021/07/02 08:16:33;;;;;;;20.07;15.10;;;16.20;99.90;;;;;;5036113;28;20932;-65
2021/07/02 08:18:59;;;;;;;24.02;16.45;;;16.20;99.90;;;;;;5044705;28;20467;-65
2021/07/02 08:21:25;;;;;;;28.87;19.17;;;16.30;99.90;;;;;;5036651;28;20549;-65
2021/07/02 08:23:51;;;;;;;28.80;20.40;;;16.30;99.90;;;;;;5029092;28;20446;-66
2021/07/02 08:26:18;;;;;;;32.00;19.50;;;16.30;99.90;;;;;;5027197;28;20474;-66
2021/07/02 08:31:28;;;;;;;33.93;21.97;;;16.30;99.90;;;;;;5054762;28;20818;-67
2021/07/02 08:33:54;;;;;;;36.33;21.60;;;16.40;99.90;;;;;;5035096;28;20426;-66
2021/07/02 08:36:20;;;;;;;33.30;21.60;;;16.40;99.90;;;;;;5034382;28;20414;-65
2021/07/02 08:38:45;;;;;;;34.30;21.97;;;16.40;99.90;;;;;;5050108;28;20180;-64
2021/07/02 08:41:14;;;;;;;33.70;22.10;;;16.30;99.90;;;;;;5050382;28;20193;-64
2021/07/02 08:43:42;;;;;;;37.93;23.00;;;16.40;99.90;;;;;;5039749;28;20186;-66
2021/07/02 08:46:12;;;;;;;34.60;22.83;;;16.30;99.90;;;;;;5041327;28;20539;-66
2021/07/02 08:48:39;;;;;;;38.70;23.80;;;16.40;99.90;;;;;;5042077;28;20449;-66
2021/07/02 08:51:05;;;;;;;38.23;23.10;;;16.40;99.90;;;;;;5034067;28;21446;-65
2021/07/02 08:53:33;;;;;;;35.60;22.80;;;16.40;99.90;;;;;;5031862;28;20421;-65
2021/07/02 08:56:01;;;;;;;38.27;22.40;;;16.50;99.90;;;;;;5043233;28;20510;-66
2021/07/02 08:58:27;;;;;;;34.10;21.87;;;16.40;99.90;;;;;;5042605;28;20478;-66
2021/07/02 09:00:53;;;;;;;32.57;22.30;;;16.40;99.90;;;;;;5036404;28;20473;-66
2021/07/02 09:03:38;;;;;;;32.90;20.70;;;16.40;99.90;;;;;;5033004;28;20192;-65
2021/07/02 09:06:13;;;;;;;30.13;19.90;;;16.40;99.90;;;;;;5033983;28;20502;-65
2021/07/02 09:08:40;;;;;;;31.77;19.63;;;16.40;99.90;;;;;;5041041;28;20414;-65
2021/07/02 09:11:31;;;;;;;32.33;19.37;;;16.40;99.90;;;;;;5037189;28;21192;-65
2021/07/02 09:13:58;;;;;;;29.70;21.10;;;16.50;99.90;;;;;;5030242;28;20514;-62
2021/07/02 09:16:25;;;;;;;33.17;22.10;;;16.50;99.90;;;;;;5042899;28;20490;-64
2021/07/02 09:18:51;;;;;;;29.43;19.73;;;16.40;99.90;;;;;;5042252;28;20578;-65
2021/07/02 09:21:28;;;;;;;33.93;23.13;;;16.50;99.90;;;;;;5046966;28;20445;-64
2021/07/02 09:23:57;;;;;;;32.43;21.97;;;16.50;99.90;;;;;;5040622;28;21155;-66
2021/07/02 09:26:41;;;;;;;38.90;23.23;;;16.60;99.90;;;;;;5046257;28;20410;-66
2021/07/02 09:29:24;;;;;;;36.10;23.10;;;16.60;99.90;;;;;;5039763;28;20435;-66
2021/07/02 09:31:58;;;;;;;34.27;23.97;;;16.60;99.90;;;;;;5045212;28;20459;-65
2021/07/02 09:34:44;;;;;;;37.00;23.93;;;16.60;99.90;;;;;;5046692;28;20930;-65
2021/07/02 09:37:32;;;;;;;38.90;24.27;;;16.70;99.90;;;;;;5031291;28;20469;-65
2021/07/02 09:40:26;;;;;;;37.83;23.30;;;16.80;99.90;;;;;;5038246;28;20564;-64
2021/07/02 09:42:59;;;;;;;39.17;24.95;;;16.80;99.90;;;;;;5046729;28;20420;-66
2021/07/02 09:45:25;;;;;;;34.00;24.97;;;16.90;99.90;;;;;;5041796;28;20183;-65
2021/07/02 09:47:51;;;;;;;36.73;23.80;;;17.00;99.90;;;;;;5032796;28;20413;-65
2021/07/02 09:50:22;;;;;;;40.43;25.53;;;17.10;99.90;;;;;;5029762;28;21125;-65
2021/07/02 09:52:51;;;;;;;35.70;24.13;;;17.10;99.90;;;;;;5049672;28;20463;-65
2021/07/02 09:55:19;;;;;;;39.05;24.13;;;17.10;99.90;;;;;;5050743;28;20425;-65
2021/07/02 09:57:45;;;;;;;38.20;24.53;;;17.10;99.90;;;;;;5047275;28;20246;-62
2021/07/02 10:00:14;;;;;;;38.67;25.57;;;17.10;99.90;;;;;;5050619;28;20463;-65
2021/07/02 10:02:55;;;;;;;32.83;24.70;;;17.10;99.90;;;;;;5043311;28;20190;-63
2021/07/02 10:05:21;;;;;;;33.70;24.93;;;17.30;99.90;;;;;;5045458;28;20431;-63
2021/07/02 10:08:00;;;;;;;38.80;25.13;;;17.40;99.90;;;;;;5049685;28;20441;-64
2021/07/02 10:10:26;;;;;;;39.30;24.10;;;17.60;99.90;;;;;;5050547;28;20205;-65
2021/07/02 10:12:54;;;;;;;29.73;23.27;;;18.00;99.90;;;;;;5045765;28;20476;-64
2021/07/02 10:15:20;;;;;;;29.75;22.40;;;18.40;99.90;;;;;;5036211;28;20432;-63
2021/07/02 10:17:46;;;;;;;30.03;20.10;;;18.80;99.90;;;;;;5034865;28;20196;-64
2021/07/02 10:20:14;;;;;;;26.60;20.17;;;19.40;99.90;;;;;;5048512;28;21116;-64
2021/07/02 10:22:41;;;;;;;24.70;18.00;;;19.80;99.90;;;;;;5039202;28;20472;-65
2021/07/02 10:25:10;;;;;;;21.93;19.10;;;20.40;60.90;;;;;;5030363;28;20424;-64
2021/07/02 10:27:36;;;;;;;23.57;18.80;;;20.70;46.50;;;;;;5041083;28;20467;-64
2021/07/02 10:30:02;;;;;;;18.50;16.50;;;20.90;46.20;;;;;;5049500;28;20473;-64
2021/07/02 10:32:29;;;;;;;17.40;15.13;;;21.00;23.40;;;;;;5032957;28;20508;-63
2021/07/02 10:34:55;;;;;;;20.23;16.57;;;21.20;1.00;;;;;;5033020;28;20424;-64
2021/07/02 10:37:20;;;;;;;17.33;15.43;;;21.00;1.00;;;;;;5029180;28;20474;-64
2021/07/02 10:39:46;;;;;;;18.80;16.70;;;20.90;10.90;;;;;;5044961;28;20285;-64
2021/07/02 10:42:14;;;;;;;21.77;17.20;;;20.70;6.50;;;;;;5028933;28;20178;-64
2021/07/02 10:44:52;;;;;;;18.07;15.87;;;20.30;23.50;;;;;;5030291;28;20201;-65
2021/07/02 10:47:18;;;;;;;22.77;17.63;;;19.90;54.20;;;;;;5043422;28;20435;-64
2021/07/02 10:49:44;;;;;;;20.40;17.73;;;19.80;70.10;;;;;;5045059;28;20470;-64
2021/07/02 10:52:31;;;;;;;18.37;16.47;;;19.90;79.80;;;;;;5047689;28;20536;-65
2021/07/02 10:54:57;;;;;;;19.40;16.33;;;20.10;61.50;;;;;;5049892;28;20186;-64
2021/07/02 10:57:25;;;;;;;17.57;15.77;;;20.40;51.80;;;;;;5043944;28;20772;-65
2021/07/02 10:59:52;;;;;;;18.43;16.60;;;20.70;50.00;;;;;;5049655;28;20456;-63
2021/07/02 11:02:19;;;;;;;18.00;15.10;;;21.10;33.70;;;;;;5039836;28;20951;-63
2021/07/02 11:04:46;;;;;;;17.77;14.87;;;21.50;14.80;;;;;;5029695;28;20401;-65
2021/07/02 11:07:11;;;;;;;16.47;14.87;;;21.90;1.90;;;;;;5030568;28;20433;-64
2021/07/02 11:10:00;;;;;;;14.93;13.43;;;22.10;1.00;;;;;;5038254;28;20791;-65
2021/07/02 11:12:26;;;;;;;16.67;15.07;;;22.20;1.00;;;;;;5048450;28;20197;-64
2021/07/02 11:14:55;;;;;;;17.63;14.55;;;22.10;1.00;;;;;;5069302;28;20407;-65
2021/07/02 11:17:28;;;;;;;16.40;14.70;;;22.10;1.00;;;;;;5063890;28;21182;-65
2021/07/02 11:20:14;;;;;;;16.20;14.60;;;22.30;1.00;;;;;;5048353;28;20470;-64
2021/07/02 11:22:52;;;;;;;16.10;14.50;;;22.40;1.00;;;;;;5056795;28;20427;-70
2021/07/02 11:28:09;;;;;;;15.33;13.90;;;22.60;1.00;;;;;;5048089;28;20942;-64
2021/07/02 11:30:37;;;;;;;18.03;14.67;;;22.70;1.00;;;;;;5032002;28;20451;-67
2021/07/02 11:33:13;;;;;;;16.17;14.57;;;22.60;1.00;;;;;;5048594;28;20554;-64
2021/07/02 11:35:46;;;;;;;17.60;15.77;;;22.60;1.00;;;;;;5048014;28;20465;-65
2021/07/02 11:38:17;;;;;;;15.70;14.10;;;22.50;1.00;;;;;;5047835;28;21207;-65
2021/07/02 11:40:54;;;;;;;16.73;15.03;;;22.30;1.00;;;;;;5034247;28;20222;-65
2021/07/02 11:43:39;;;;;;;15.10;13.60;;;22.00;1.00;;;;;;5047409;28;20420;-64
2021/07/02 11:46:07;;;;;;;15.43;13.93;;;21.90;1.00;;;;;;5037159;28;20166;-68
2021/07/02 11:48:35;;;;;;;14.27;12.87;;;22.20;1.00;;;;;;5047349;28;20479;-68
2021/07/02 11:51:02;;;;;;;13.77;12.47;;;22.50;1.00;;;;;;5042989;28;20575;-64
2021/07/02 11:53:33;;;;;;;14.20;12.70;;;22.70;1.00;;;;;;5047532;28;20428;-64
2021/07/02 11:56:10;;;;;;;13.73;12.50;;;23.10;1.00;;;;;;5045416;28;20424;-64
2021/07/02 11:58:37;;;;;;;13.27;12.10;;;23.30;99.90;;;;;;5034463;28;20428;-64
2021/07/02 12:01:10;;;;;;;14.07;12.77;;;23.20;99.90;;;;;;5028793;28;20503;-64
2021/07/02 12:03:36;;;;;;;13.40;12.10;;;23.10;99.90;;;;;;5045124;28;20841;-64
2021/07/02 12:06:04;;;;;;;14.23;12.93;;;23.20;1.00;;;;;;5047442;28;20468;-62
2021/07/02 12:08:31;;;;;;;13.30;12.10;;;23.40;99.90;;;;;;5048462;28;20459;-64
2021/07/02 12:11:02;;;;;;;13.37;11.93;;;24.10;1.00;;;;;;5027753;28;20516;-64
2021/07/02 12:13:31;;;;;;;13.40;12.20;;;25.00;1.00;;;;;;5028094;28;20926;-65
2021/07/02 12:16:07;;;;;;;13.07;11.87;;;25.50;20.00;;;;;;5039216;28;20451;-64
2021/07/02 12:18:35;;;;;;;11.80;10.80;;;25.70;1.00;;;;;;5036606;28;20436;-65
2021/07/02 12:21:12;;;;;;;13.13;11.73;;;26.70;1.00;;;;;;5037998;28;20429;-64
2021/07/02 12:23:40;;;;;;;13.00;11.73;;;27.50;99.90;;;;;;5040493;28;20466;-65
2021/07/02 12:26:19;;;;;;;12.70;11.67;;;27.20;99.90;;;;;;5041242;28;20443;-64
2021/07/02 12:29:08;;;;;;;12.97;11.60;;;27.00;1.00;;;;;;5045956;28;20477;-64
2021/07/02 12:31:41;;;;;;;12.13;11.10;;;27.40;1.00;;;;;;5042191;28;20460;-65
2021/07/02 12:34:11;;;;;;;11.83;11.03;;;27.90;1.00;;;;;;5042735;28;20428;-65
2021/07/02 12:37:00;;;;;;;11.73;10.82;;;28.60;99.90;;;;;;5047479;28;20945;-71
2021/07/02 12:39:36;;;;;;;10.90;10.10;;;28.80;1.00;;;;;;5044411;28;20182;-65
2021/07/02 12:42:22;;;;;;;12.80;11.60;;;29.00;1.00;;;;;;5028379;28;20452;-64
2021/07/02 12:44:59;;;;;;;11.77;10.87;;;29.40;1.00;;;;;;5032151;28;20493;-67
2021/07/02 12:47:29;;;;;;;10.98;10.02;;;29.80;1.00;;;;;;5048208;28;20571;-66
2021/07/02 12:49:59;;;;;;;12.00;11.10;;;30.40;1.00;;;;;;5029746;28;20194;-65